createdAt,value
2018-08-19T00:02:16.689Z,101479.83
2018-08-19T00:04:59.321Z,101481.76
2018-08-19T00:07:28.529Z,101483.70
2018-08-19T00:09:57.957Z,101486.81
2018-08-19T00:12:47.396Z,101478.66
2018-08-19T00:15:16.097Z,101480.84
2018-08-19T00:17:46.628Z,101480.50
2018-08-19T00:20:15.778Z,101482.89
2018-08-19T00:22:46.146Z,101477.50
2018-08-19T00:25:25.848Z,101482.16
2018-08-19T00:27:55.462Z,101480.50
2018-08-19T00:30:23.838Z,101486.73
2018-08-19T00:32:52.252Z,101486.73
2018-08-19T00:35:20.797Z,101486.48
2018-08-19T00:37:50.032Z,101484.31
2018-08-19T00:40:19.349Z,101483.94
2018-08-19T00:42:48.704Z,101482.14
2018-08-19T00:45:18.241Z,101488.65
2018-08-19T00:47:48.381Z,101489.11
2018-08-19T00:50:17.612Z,101494.34
2018-08-19T00:52:46.784Z,101485.24
2018-08-19T00:55:16.465Z,101478.66
2018-08-19T00:57:50.802Z,101477.16
2018-08-19T01:00:19.162Z,101487.72
2018-08-19T01:02:48.533Z,101489.73
2018-08-19T01:05:17.908Z,101484.00
2018-08-19T01:07:47.165Z,101483.54
2018-08-19T01:10:16.649Z,101490.04
2018-08-19T01:12:46.044Z,101493.02
2018-08-19T01:15:17.037Z,101490.52
2018-08-19T01:17:46.576Z,101485.48
2018-08-19T01:20:19.888Z,101492.92
2018-08-19T01:22:49.504Z,101484.87
2018-08-19T01:25:18.142Z,101482.14
2018-08-19T01:27:46.679Z,101486.56
2018-08-19T01:30:19.155Z,101479.14
2018-08-19T01:32:47.766Z,101483.36
2018-08-19T01:35:16.276Z,101478.80
2018-08-19T01:37:45.140Z,101482.90
2018-08-19T01:40:17.642Z,101492.73
2018-08-19T01:42:48.849Z,101487.19
2018-08-19T01:45:17.700Z,101488.64
2018-08-19T01:47:46.288Z,101496.22
2018-08-19T01:50:17.410Z,101485.55
2018-08-19T01:52:48.304Z,101484.97
2018-08-19T01:55:17.945Z,101484.50
2018-08-19T01:57:47.423Z,101480.78
2018-08-19T02:00:16.481Z,101480.44
2018-08-19T02:03:08.964Z,101486.66
2018-08-19T02:05:38.200Z,101493.63
2018-08-19T02:08:06.569Z,101481.76
2018-08-19T02:10:36.054Z,101485.11
2018-08-19T02:13:04.419Z,101491.70
2018-08-19T02:15:33.897Z,101486.89
2018-08-19T02:18:05.592Z,101484.97
2018-08-19T02:20:37.627Z,101486.86
2018-08-19T02:23:07.549Z,101487.94
2018-08-19T02:25:38.985Z,101490.44
2018-08-19T02:28:08.440Z,101490.44
2018-08-19T02:30:51.178Z,101491.89
2018-08-19T02:33:21.397Z,101487.36
2018-08-19T02:36:23.813Z,101488.31
2018-08-19T02:38:52.158Z,101488.96
2018-08-19T02:41:20.634Z,101488.48
2018-08-19T02:43:54.301Z,101485.75
2018-08-19T02:46:22.713Z,101483.11
2018-08-19T02:48:51.480Z,101493.05
2018-08-19T02:51:20.904Z,101494.39
2018-08-19T02:53:50.305Z,101490.68
2018-08-19T02:56:20.481Z,101492.47
2018-08-19T02:58:49.581Z,101497.00
2018-08-19T03:01:18.612Z,101497.58
2018-08-19T03:03:46.966Z,101490.52
2018-08-19T03:06:16.232Z,101491.47
2018-08-19T03:08:50.931Z,101489.06
2018-08-19T03:11:21.681Z,101487.23
2018-08-19T03:13:50.944Z,101482.09
2018-08-19T03:16:20.185Z,101481.16
2018-08-19T03:18:50.201Z,101482.37
2018-08-19T03:21:20.313Z,101478.78
2018-08-19T03:23:51.994Z,101477.00
2018-08-19T03:26:21.320Z,101474.87
2018-08-19T03:28:50.544Z,101474.02
2018-08-19T03:31:19.876Z,101474.52
2018-08-19T03:33:48.217Z,101474.17
2018-08-19T03:36:17.845Z,101478.35
2018-08-19T03:38:46.281Z,101474.30
2018-08-19T03:41:15.810Z,101480.78
2018-08-19T03:43:53.231Z,101474.90
2018-08-19T03:46:22.670Z,101488.18
2018-08-19T03:48:52.040Z,101483.42
2018-08-19T03:51:21.386Z,101476.22
2018-08-19T03:53:49.832Z,101477.77
2018-08-19T03:56:23.437Z,101479.45
2018-08-19T03:58:57.507Z,101478.73
2018-08-19T04:01:38.605Z,101482.22
2018-08-19T04:04:06.990Z,101483.64
2018-08-19T04:06:36.165Z,101484.36
2018-08-19T04:09:06.469Z,101493.35
2018-08-19T04:11:34.888Z,101498.73
2018-08-19T04:14:08.685Z,101498.49
2018-08-19T04:16:37.573Z,101493.20
2018-08-19T04:19:10.804Z,101501.00
2018-08-19T04:21:40.891Z,101497.64
2018-08-19T04:24:13.339Z,101505.09
2018-08-19T04:26:43.651Z,101494.52
2018-08-19T04:29:17.123Z,101501.83
2018-08-19T04:31:48.716Z,101515.72
2018-08-19T04:34:19.425Z,101512.71
2018-08-19T04:36:50.939Z,101513.42
2018-08-19T04:39:20.460Z,101512.92
2018-08-19T04:41:49.691Z,101520.36
2018-08-19T04:44:18.925Z,101523.47
2018-08-19T04:46:48.280Z,101522.99
2018-08-19T04:49:17.632Z,101528.64
2018-08-19T04:51:46.057Z,101530.06
2018-08-19T04:54:15.661Z,101524.79
2018-08-19T04:56:45.261Z,101518.09
2018-08-19T04:59:14.310Z,101514.14
2018-08-19T05:01:45.009Z,101517.25
2018-08-19T05:04:15.473Z,101516.78
2018-08-19T05:06:46.645Z,101508.87
2018-08-19T05:09:16.709Z,101515.09
2018-08-19T05:11:46.414Z,101515.05
2018-08-19T05:14:16.229Z,101518.27
2018-08-19T05:16:45.615Z,101526.41
2018-08-19T05:19:16.127Z,101522.05
2018-08-19T05:21:45.121Z,101526.74
2018-08-19T05:24:14.860Z,101525.52
2018-08-19T05:26:45.761Z,101538.23
2018-08-19T05:29:14.740Z,101528.48
2018-08-19T05:31:54.748Z,101534.69
2018-08-19T05:34:29.545Z,101541.33
2018-08-19T05:36:59.115Z,101545.37
2018-08-19T05:39:27.627Z,101542.64
2018-08-19T05:42:04.453Z,101543.70
2018-08-19T05:44:38.117Z,101545.22
2018-08-19T05:47:09.181Z,101546.86
2018-08-19T05:49:39.624Z,101550.80
2018-08-19T05:52:15.128Z,101547.45
2018-08-19T05:54:58.109Z,101550.30
2018-08-19T05:57:26.537Z,101547.91
2018-08-19T05:59:55.888Z,101547.77
2018-08-19T06:02:30.278Z,101545.83
2018-08-19T06:05:00.534Z,101539.30
2018-08-19T06:07:29.077Z,101540.43
2018-08-19T06:09:57.528Z,101541.64
2018-08-19T06:12:25.893Z,101540.11
2018-08-19T06:14:54.249Z,101538.91
2018-08-19T06:17:23.666Z,101543.09
2018-08-19T06:19:52.926Z,101544.26
2018-08-19T06:22:24.393Z,101546.74
2018-08-19T06:24:52.760Z,101545.35
2018-08-19T06:27:21.162Z,101556.11
2018-08-19T06:29:51.561Z,101552.75
2018-08-19T06:32:25.360Z,101550.31
2018-08-19T06:34:54.828Z,101553.11
2018-08-19T06:37:23.205Z,101547.69
2018-08-19T06:39:52.465Z,101545.81
2018-08-19T06:42:21.961Z,101555.25
2018-08-19T06:44:51.341Z,101547.20
2018-08-19T06:47:19.760Z,101544.61
2018-08-19T06:49:54.340Z,101544.91
2018-08-19T06:52:24.595Z,101545.20
2018-08-19T06:54:54.040Z,101549.89
2018-08-19T06:57:23.476Z,101543.02
2018-08-19T06:59:51.800Z,101549.61
2018-08-19T07:02:22.192Z,101538.61
2018-08-19T07:04:50.751Z,101546.14
2018-08-19T07:07:19.936Z,101540.75
2018-08-19T07:09:48.786Z,101544.87
2018-08-19T07:12:19.913Z,101543.91
2018-08-19T07:14:48.532Z,101544.34
2018-08-19T07:17:18.637Z,101545.24
2018-08-19T07:19:47.953Z,101544.71
2018-08-19T07:22:18.549Z,101543.46
2018-08-19T07:24:47.801Z,101548.11
2018-08-19T07:27:16.647Z,101548.20
2018-08-19T07:29:47.342Z,101546.73
2018-08-19T07:32:16.621Z,101544.51
2018-08-19T07:34:46.998Z,101540.34
2018-08-19T07:37:16.836Z,101538.03
2018-08-19T07:39:50.953Z,101544.58
2018-08-19T07:42:20.290Z,101541.75
2018-08-19T07:44:48.795Z,101545.73
2018-08-19T07:47:17.123Z,101544.40
2018-08-19T07:49:46.368Z,101548.07
2018-08-19T07:52:15.716Z,101540.28
2018-08-19T07:54:46.360Z,101539.42
2018-08-19T07:57:25.564Z,101548.75
2018-08-19T07:59:53.922Z,101549.71
2018-08-19T08:02:26.432Z,101549.69
2018-08-19T08:04:54.895Z,101550.16
2018-08-19T08:07:23.251Z,101546.64
2018-08-19T08:09:51.675Z,101548.93
2018-08-19T08:12:21.021Z,101550.81
2018-08-19T08:14:52.181Z,101548.95
2018-08-19T08:17:21.281Z,101552.44
2018-08-19T08:19:55.053Z,101544.05
2018-08-19T08:22:24.715Z,101541.89
2018-08-19T08:24:53.263Z,101538.71
2018-08-19T08:27:22.397Z,101535.91
2018-08-19T08:29:50.725Z,101536.84
2018-08-19T08:32:19.101Z,101531.54
2018-08-19T08:34:48.300Z,101527.27
2018-08-19T08:37:16.751Z,101525.60
2018-08-19T08:39:45.657Z,101526.10
2018-08-19T08:42:15.049Z,101530.34
2018-08-19T08:44:44.807Z,101534.19
2018-08-19T08:47:14.936Z,101536.44
2018-08-19T08:49:46.920Z,101536.03
2018-08-19T08:52:21.191Z,101538.59
2018-08-19T08:54:52.474Z,101541.55
2018-08-19T08:57:22.521Z,101536.96
2018-08-19T08:59:52.572Z,101529.10
2018-08-19T09:02:21.913Z,101524.59
2018-08-19T09:04:52.261Z,101526.44
2018-08-19T09:07:21.695Z,101523.00
2018-08-19T09:09:51.310Z,101518.02
2018-08-19T09:12:30.942Z,101518.98
2018-08-19T09:14:59.312Z,101519.66
2018-08-19T09:17:27.735Z,101509.74
2018-08-19T09:19:57.230Z,101504.25
2018-08-19T09:22:25.621Z,101505.36
2018-08-19T09:24:54.869Z,101497.97
2018-08-19T09:27:24.357Z,101492.51
2018-08-19T09:29:52.690Z,101494.45
2018-08-19T09:32:21.943Z,101495.79
2018-08-19T09:34:50.445Z,101493.64
2018-08-19T09:37:19.749Z,101493.31
2018-08-19T09:39:48.078Z,101496.09
2018-08-19T09:42:16.560Z,101495.50
2018-08-19T09:44:45.721Z,101492.97
2018-08-19T09:47:15.481Z,101498.05
2018-08-19T09:49:45.017Z,101492.25
2018-08-19T09:52:15.637Z,101493.05
2018-08-19T09:54:44.997Z,101499.67
2018-08-19T09:57:15.244Z,101492.56
2018-08-19T09:59:45.389Z,101485.18
2018-08-19T10:02:15.736Z,101486.66
2018-08-19T10:04:44.805Z,101489.42
2018-08-19T10:07:14.970Z,101476.02
2018-08-19T10:09:44.106Z,101472.81
2018-08-19T10:12:15.893Z,101473.06
2018-08-19T10:14:46.721Z,101470.51
2018-08-19T10:17:16.458Z,101467.70
2018-08-19T10:19:45.812Z,101470.63
2018-08-19T10:22:16.233Z,101457.70
2018-08-19T10:24:45.585Z,101452.59
2018-08-19T10:27:15.825Z,101451.47
2018-08-19T10:29:46.521Z,101449.11
2018-08-19T10:32:15.943Z,101445.70
2018-08-19T10:34:44.909Z,101433.61
2018-08-19T10:37:13.817Z,101431.75
2018-08-19T10:39:43.745Z,101432.93
2018-08-19T10:42:20.287Z,101434.38
2018-08-19T10:44:50.476Z,101437.89
2018-08-19T10:47:19.756Z,101425.58
2018-08-19T10:49:57.493Z,101419.56
2018-08-19T10:52:31.373Z,101415.73
2018-08-19T10:55:01.133Z,101410.97
2018-08-19T10:57:30.537Z,101419.61
2018-08-19T10:59:59.603Z,101420.39
2018-08-19T11:02:28.037Z,101410.65
2018-08-19T11:04:58.349Z,101410.50
2018-08-19T11:07:26.705Z,101396.36
2018-08-19T11:10:13.439Z,101396.16
2018-08-19T11:12:41.844Z,101393.20
2018-08-19T11:15:26.180Z,101393.47
2018-08-19T11:17:54.569Z,101388.23
2018-08-19T11:20:29.375Z,101385.34
2018-08-19T11:23:00.629Z,101378.59
2018-08-19T11:25:29.827Z,101381.42
2018-08-19T11:27:58.209Z,101378.07
2018-08-19T11:30:26.609Z,101377.30
2018-08-19T11:32:54.961Z,101378.33
2018-08-19T11:35:27.267Z,101373.48
2018-08-19T11:37:55.638Z,101370.50
2018-08-19T11:40:24.029Z,101367.44
2018-08-19T11:42:52.521Z,101363.22
2018-08-19T11:45:20.878Z,101360.05
2018-08-19T11:47:53.397Z,101360.42
2018-08-19T11:50:21.842Z,101357.02
2018-08-19T11:52:54.721Z,101357.37
2018-08-19T11:55:23.105Z,101355.01
2018-08-19T11:57:51.461Z,101351.48
2018-08-19T12:00:20.034Z,101353.20
2018-08-19T12:02:48.357Z,101344.91
2018-08-19T12:05:17.214Z,101340.47
2018-08-19T12:07:48.616Z,101326.09
2018-08-19T12:10:16.974Z,101326.78
2018-08-19T12:12:48.682Z,101333.44
2018-08-19T12:15:17.241Z,101325.69
2018-08-19T12:17:45.581Z,101327.64
2018-08-19T12:20:16.645Z,101317.52
2018-08-19T12:22:46.702Z,101321.39
2018-08-19T12:25:15.957Z,101311.16
2018-08-19T12:27:45.038Z,101316.32
2018-08-19T12:30:14.716Z,101307.77
2018-08-19T12:32:43.977Z,101303.20
2018-08-19T12:35:12.726Z,101301.47
2018-08-19T12:37:41.114Z,101300.64
2018-08-19T12:40:09.432Z,101292.22
2018-08-19T12:42:43.773Z,101298.06
2018-08-19T12:45:13.933Z,101295.37
2018-08-19T12:47:42.869Z,101292.45
2018-08-19T12:50:15.985Z,101284.81
2018-08-19T12:52:45.477Z,101281.37
2018-08-19T12:55:16.503Z,101270.08
2018-08-19T12:57:46.234Z,101271.41
2018-08-19T13:00:26.138Z,101265.77
2018-08-19T13:02:54.820Z,101259.85
2018-08-19T13:05:23.541Z,101263.38
2018-08-19T13:07:51.971Z,101255.56
2018-08-19T13:10:20.604Z,101244.33
2018-08-19T13:12:54.024Z,101245.52
2018-08-19T13:15:23.293Z,101238.27
2018-08-19T13:17:51.796Z,101235.41
2018-08-19T13:20:20.149Z,101223.20
2018-08-19T13:22:53.937Z,101225.22
2018-08-19T13:25:23.367Z,101220.64
2018-08-19T13:27:51.706Z,101217.09
2018-08-19T13:30:20.816Z,101214.41
2018-08-19T13:32:49.701Z,101211.18
2018-08-19T13:35:18.521Z,101205.76
2018-08-19T13:37:46.893Z,101200.44
2018-08-19T13:40:16.494Z,101194.09
2018-08-19T13:42:45.748Z,101188.11
2018-08-19T13:45:21.350Z,101189.32
2018-08-19T13:47:51.113Z,101187.83
2018-08-19T13:50:19.477Z,101183.95
2018-08-19T13:52:47.905Z,101165.91
2018-08-19T13:55:17.858Z,101180.50
2018-08-19T13:57:46.504Z,101180.77
2018-08-19T14:00:23.185Z,101177.89
2018-08-19T14:02:51.904Z,101165.77
2018-08-19T14:05:20.245Z,101157.81
2018-08-19T14:07:48.590Z,101162.20
2018-08-19T14:10:17.401Z,101161.00
2018-08-19T14:12:45.793Z,101156.39
2018-08-19T14:15:15.343Z,101152.98
2018-08-19T14:17:44.724Z,101154.20
2018-08-19T14:20:13.992Z,101150.38
2018-08-19T14:22:42.944Z,101150.66
2018-08-19T14:25:14.221Z,101140.69
2018-08-19T14:27:42.552Z,101137.22
2018-08-19T14:30:12.001Z,101133.50
2018-08-19T14:32:44.293Z,101136.96
2018-08-19T14:35:13.556Z,101128.47
2018-08-19T14:37:42.855Z,101132.73
2018-08-19T14:40:15.372Z,101130.16
2018-08-19T14:42:44.709Z,101129.81
2018-08-19T14:45:15.440Z,101124.29
2018-08-19T14:47:45.874Z,101124.30
2018-08-19T14:50:18.502Z,101120.17
2018-08-19T14:52:47.752Z,101110.05
2018-08-19T14:55:16.187Z,101118.27
2018-08-19T14:57:46.184Z,101112.39
2018-08-19T15:00:16.825Z,101112.92
2018-08-19T15:02:46.108Z,101114.92
2018-08-19T15:05:18.355Z,101106.88
2018-08-19T15:07:48.025Z,101100.30
2018-08-19T15:10:23.325Z,101099.18
2018-08-19T15:12:52.324Z,101087.59
2018-08-19T15:15:20.888Z,101094.50
2018-08-19T15:17:54.639Z,101088.34
2018-08-19T15:20:28.852Z,101090.33
2018-08-19T15:23:09.578Z,101090.67
2018-08-19T15:25:39.025Z,101088.02
2018-08-19T15:28:08.265Z,101086.48
2018-08-19T15:30:39.345Z,101080.41
2018-08-19T15:33:09.766Z,101077.76
2018-08-19T15:35:39.917Z,101078.66
2018-08-19T15:38:10.334Z,101068.72
2018-08-19T15:40:41.697Z,101065.74
2018-08-19T15:43:13.014Z,101060.91
2018-08-19T15:45:44.805Z,101060.55
2018-08-19T15:48:16.013Z,101060.91
2018-08-19T15:50:46.973Z,101066.19
2018-08-19T15:53:18.831Z,101058.23
2018-08-19T15:55:48.220Z,101054.23
2018-08-19T15:58:17.581Z,101050.48
2018-08-19T16:00:46.788Z,101044.40
2018-08-19T16:03:16.641Z,101045.50
2018-08-19T16:05:45.878Z,101043.87
2018-08-19T16:08:16.769Z,101038.07
2018-08-19T16:10:46.018Z,101040.14
2018-08-19T16:13:16.925Z,101032.84
2018-08-19T16:15:47.041Z,101030.07
2018-08-19T16:18:16.340Z,101023.69
2018-08-19T16:20:49.858Z,101028.80
2018-08-19T16:23:19.217Z,101025.89
2018-08-19T16:25:48.581Z,101022.33
2018-08-19T16:28:18.330Z,101022.25
2018-08-19T16:30:47.553Z,101018.38
2018-08-19T16:33:16.332Z,101015.38
2018-08-19T16:35:44.991Z,101008.80
2018-08-19T16:38:14.057Z,101007.30
2018-08-19T16:40:43.593Z,101002.53
2018-08-19T16:43:11.993Z,101000.16
2018-08-19T16:45:40.354Z,100998.63
2018-08-19T16:48:08.708Z,100994.52
2018-08-19T16:50:37.193Z,100996.84
2018-08-19T16:53:05.486Z,100994.58
2018-08-19T16:55:34.001Z,100998.59
2018-08-19T16:58:02.325Z,100996.44
2018-08-19T17:00:30.713Z,100998.28
2018-08-19T17:02:59.223Z,100994.88
2018-08-19T17:05:32.390Z,100988.43
2018-08-19T17:08:00.841Z,100981.92
2018-08-19T17:10:30.342Z,100993.37
2018-08-19T17:12:59.148Z,100990.06
2018-08-19T17:15:27.799Z,100988.77
2018-08-19T17:17:56.208Z,100983.18
2018-08-19T17:20:25.426Z,100985.80
2018-08-19T17:22:53.770Z,100983.42
2018-08-19T17:25:22.098Z,100980.69
2018-08-19T17:27:50.429Z,100988.06
2018-08-19T17:30:19.141Z,100984.96
2018-08-19T17:32:56.161Z,100978.00
2018-08-19T17:35:25.505Z,100975.30
2018-08-19T17:37:55.061Z,100971.95
2018-08-19T17:40:23.633Z,100973.07
2018-08-19T17:42:52.917Z,100978.16
2018-08-19T17:45:22.273Z,100978.56
2018-08-19T17:47:51.498Z,100970.78
2018-08-19T17:50:24.873Z,100978.69
2018-08-19T17:52:55.516Z,100976.64
2018-08-19T17:55:24.449Z,100969.75
2018-08-19T17:57:54.080Z,100972.45
2018-08-19T18:00:23.017Z,100973.77
2018-08-19T18:02:52.533Z,100972.92
2018-08-19T18:05:21.041Z,100977.74
2018-08-19T18:07:52.277Z,100978.23
2018-08-19T18:10:20.755Z,100975.92
2018-08-19T18:12:50.157Z,100968.57
2018-08-19T18:15:18.654Z,100972.84
2018-08-19T18:17:52.295Z,100972.34
2018-08-19T18:20:24.634Z,100980.53
2018-08-19T18:22:55.300Z,100979.30
2018-08-19T18:25:23.937Z,100979.41
2018-08-19T18:27:53.084Z,100977.28
2018-08-19T18:30:27.482Z,100993.22
2018-08-19T18:32:56.729Z,100981.09
2018-08-19T18:35:25.134Z,100991.28
2018-08-19T18:37:53.484Z,100990.47
2018-08-19T18:40:32.240Z,100993.53
2018-08-19T18:43:02.161Z,100986.23
2018-08-19T18:45:30.644Z,100986.37
2018-08-19T18:48:03.085Z,100988.71
2018-08-19T18:50:31.622Z,100984.09
2018-08-19T18:53:00.858Z,100991.39
2018-08-19T18:55:30.195Z,100988.52
2018-08-19T18:57:59.536Z,100990.71
2018-08-19T19:00:28.590Z,100991.16
2018-08-19T19:03:00.746Z,100993.86
2018-08-19T19:05:42.046Z,100994.30
2018-08-19T19:08:15.593Z,100988.23
2018-08-19T19:10:54.424Z,100994.97
2018-08-19T19:13:24.756Z,100998.82
2018-08-19T19:15:53.100Z,100995.67
2018-08-19T19:18:22.429Z,100996.06
2018-08-19T19:20:55.575Z,100996.23
2018-08-19T19:23:28.928Z,100995.30
2018-08-19T19:25:57.458Z,100992.04
2018-08-19T19:28:26.752Z,100985.47
2018-08-19T19:31:01.245Z,100984.89
2018-08-19T19:33:30.664Z,100989.09
2018-08-19T19:36:05.734Z,100987.36
2018-08-19T19:38:37.719Z,100982.73
2018-08-19T19:41:09.761Z,100981.20
2018-08-19T19:43:39.025Z,100977.78
2018-08-19T19:46:08.236Z,100983.42
2018-08-19T19:48:36.556Z,100979.53
2018-08-19T19:51:05.113Z,100978.27
2018-08-19T19:53:33.439Z,100971.12
2018-08-19T19:56:10.857Z,100975.81
2018-08-19T19:58:39.193Z,100973.99
2018-08-19T20:01:07.600Z,100972.02
2018-08-19T20:03:41.360Z,100971.52
2018-08-19T20:06:09.683Z,100972.35
2018-08-19T20:08:38.000Z,100974.67
2018-08-19T20:11:13.608Z,100977.67
2018-08-19T20:13:43.961Z,100977.39
2018-08-19T20:16:14.452Z,100975.41
2018-08-19T20:18:44.701Z,100970.13
2018-08-19T20:21:22.545Z,100962.69
2018-08-19T20:23:53.245Z,100968.23
2018-08-19T20:26:22.153Z,100968.09
2018-08-19T20:28:52.209Z,100964.98
2018-08-19T20:31:20.593Z,100963.33
2018-08-19T20:33:49.957Z,100970.46
2018-08-19T20:36:18.543Z,100965.33
2018-08-19T20:38:48.026Z,100960.62
2018-08-19T20:41:16.544Z,100968.95
2018-08-19T20:43:45.848Z,100958.00
2018-08-19T20:46:15.109Z,100958.69
2018-08-19T20:48:46.704Z,100952.37
2018-08-19T20:51:15.450Z,100956.38
2018-08-19T20:53:45.350Z,100952.07
2018-08-19T20:56:14.745Z,100955.55
2018-08-19T20:58:45.125Z,100946.44
2018-08-19T21:01:20.894Z,100946.10
2018-08-19T21:03:50.276Z,100948.77
2018-08-19T21:06:18.700Z,100945.78
2018-08-19T21:08:48.092Z,100949.11
2018-08-19T21:11:16.411Z,100954.42
2018-08-19T21:13:45.787Z,100950.59
2018-08-19T21:16:15.865Z,100952.76
2018-08-19T21:18:46.653Z,100951.09
2018-08-19T21:21:16.047Z,100951.10
2018-08-19T21:23:46.834Z,100947.92
2018-08-19T21:26:16.489Z,100950.25
2018-08-19T21:28:50.281Z,100950.76
2018-08-19T21:31:19.724Z,100948.39
2018-08-19T21:33:48.957Z,100949.73
2018-08-19T21:36:18.092Z,100949.04
2018-08-19T21:38:47.460Z,100949.70
2018-08-19T21:41:16.837Z,100947.05
2018-08-19T21:43:46.150Z,100945.03
2018-08-19T21:46:16.904Z,100947.02
2018-08-19T21:48:46.305Z,100950.66
2018-08-19T21:51:17.038Z,100945.66
2018-08-19T21:53:47.628Z,100946.31
2018-08-19T21:56:16.952Z,100950.11
2018-08-19T21:58:47.302Z,100949.45
2018-08-19T22:01:26.747Z,100949.09
2018-08-19T22:03:56.109Z,100940.47
2018-08-19T22:06:24.584Z,100949.75
2018-08-19T22:08:52.940Z,100944.09
2018-08-19T22:11:21.285Z,100947.88
2018-08-19T22:13:49.798Z,100944.03
2018-08-19T22:16:18.219Z,100941.83
2018-08-19T22:18:46.578Z,100942.97
2018-08-19T22:21:17.174Z,100938.14
2018-08-19T22:23:47.554Z,100937.17
2018-08-19T22:26:17.371Z,100933.48
2018-08-19T22:28:50.935Z,100936.13
2018-08-19T22:31:27.738Z,100933.13
2018-08-19T22:33:57.429Z,100934.44
2018-08-19T22:36:25.802Z,100934.61
2018-08-19T22:38:54.796Z,100923.95
2018-08-19T22:41:25.391Z,100929.72
2018-08-19T22:43:54.758Z,100929.03
2018-08-19T22:46:23.225Z,100929.16
2018-08-19T22:48:52.292Z,100927.27
2018-08-19T22:51:20.809Z,100924.95
2018-08-19T22:53:53.388Z,100919.30
2018-08-19T22:56:22.408Z,100924.77
2018-08-19T22:58:50.842Z,100922.96
2018-08-19T23:01:19.233Z,100920.50
2018-08-19T23:03:47.702Z,100919.02
2018-08-19T23:06:17.181Z,100921.30
2018-08-19T23:08:46.491Z,100923.15
2018-08-19T23:11:15.752Z,100915.03
2018-08-19T23:13:55.332Z,100918.66
2018-08-19T23:16:24.671Z,100914.84
2018-08-19T23:18:53.898Z,100913.98
2018-08-19T23:21:23.273Z,100912.08
2018-08-19T23:23:53.411Z,100913.05
2018-08-19T23:26:22.671Z,100910.67
2018-08-19T23:28:51.870Z,100902.71
2018-08-19T23:31:21.361Z,100905.01
2018-08-19T23:33:50.712Z,100902.90
2018-08-19T23:36:19.940Z,100904.25
2018-08-19T23:38:49.172Z,100902.27
2018-08-19T23:41:18.537Z,100908.22
2018-08-19T23:43:47.754Z,100904.45
2018-08-19T23:48:43.992Z,100900.27
2018-08-19T23:51:17.618Z,100905.11
2018-08-19T23:53:46.996Z,100901.50
2018-08-19T23:56:17.244Z,100901.80
2018-08-19T23:58:48.844Z,100904.91
